Date,TemperatureHighF,TemperatureAvgF,TemperatureLowF,DewpointHighF,DewpointAvgF,DewpointLowF,HumidityHigh,HumidityAvg,HumidityLow,PressureMaxIn,PressureMinIn,WindSpeedMaxMPH,WindSpeedAvgMPH,GustSpeedMaxMPH,PrecipitationSumIn
2013-8-1,87.7,76.7,69.7,85.4,75.5,69.7,100,97,69,29.62,29.53,8,2,8,0.00
2013-8-2,90.9,78.6,72.0,86.3,76.4,72.0,100,94,62,29.68,29.50,5,1,5,0.00
2013-8-3,89.9,78.2,68.6,86.1,74.8,68.6,100,91,60,29.68,29.59,6,1,6,0.00
2013-8-4,91.8,80.0,71.5,85.6,76.1,69.6,100,90,48,29.65,29.56,8,1,8,0.00
2013-8-5,89.3,77.6,69.5,86.3,76.8,69.5,100,98,71,29.65,29.56,5,1,6,0.00
2013-8-6,81.9,73.5,69.9,81.9,73.5,69.9,100,100,100,29.62,29.53,6,2,6,0.00
2013-8-12,94.2,80.8,72.6,84.8,78.4,71.7,100,94,48,29.68,29.59,6,1,8,0.00
2013-8-13,90.2,79.4,70.6,82.7,75.3,70.4,100,89,53,29.62,29.50,10,2,10,0.00
2013-8-14,78.9,73.4,68.6,78.9,73.4,68.6,100,100,100,29.59,29.44,4,0,5,0.00
2013-8-15,71.3,67.4,64.1,71.3,67.4,64.1,100,100,100,29.62,29.53,6,0,6,0.00
2013-8-16,66.8,63.8,61.8,66.8,63.8,61.8,100,100,100,29.59,29.53,5,1,5,0.00
2013-8-17,67.9,64.6,61.6,67.9,64.6,61.6,100,100,100,29.65,29.53,4,0,4,0.00
2013-8-18,85.0,72.3,66.5,85.0,72.3,66.5,100,100,100,29.74,29.62,5,0,5,0.00
2013-8-19,81.2,72.1,67.9,81.2,72.1,67.9,100,100,100,29.74,29.65,4,0,4,0.00
2013-8-20,85.5,75.0,69.9,83.9,75.0,69.9,100,100,92,29.77,29.65,4,0,4,0.00
2013-8-21,88.4,75.9,69.7,84.5,74.7,69.7,100,97,67,29.83,29.68,6,1,6,0.00
2013-8-22,91.8,79.2,66.5,86.1,73.8,66.5,100,86,51,29.77,29.68,7,1,7,0.00
2013-8-23,92.2,77.7,67.9,86.5,74.4,67.9,100,91,48,29.71,29.59,6,1,9,0.00
2013-8-24,81.2,71.8,65.2,77.8,70.9,65.2,100,97,76,29.80,29.62,6,1,8,0.00
2013-8-25,85.9,70.1,58.4,78.2,64.2,57.8,100,86,41,29.88,29.77,6,1,7,0.00
2013-8-26,84.3,69.4,53.9,74.4,61.2,53.9,100,80,41,29.85,29.71,5,1,5,0.00
2013-8-27,90.0,72.8,56.6,79.6,64.6,56.6,100,81,41,29.71,29.59,4,1,8,0.00
2013-8-28,89.3,74.6,62.5,81.6,68.6,62.5,100,85,44,29.65,29.50,6,1,7,0.00
2013-8-29,95.4,79.7,67.2,85.7,73.9,67.2,100,86,41,29.59,29.50,6,1,6,0.00
2013-8-30,88.4,77.0,70.1,84.7,75.9,70.1,100,97,71,29.59,29.50,5,0,5,0.00
2013-8-31,88.8,76.1,67.4,84.8,74.5,67.4,100,95,67,29.56,29.50,6,1,8,0.00